createdAt,value
2018-04-02T10:31:26.684Z,97209.34
2018-04-02T10:32:30.979Z,97198.94
2018-04-02T10:33:35.026Z,97198.48
2018-04-02T10:34:38.825Z,97194.36
2018-04-02T10:35:42.773Z,97206.86
2018-04-02T10:36:46.946Z,97187.58
2018-04-02T10:37:50.972Z,97175.73
2018-04-02T10:38:55.123Z,97178.11
2018-04-02T10:39:59.121Z,97178.52
2018-04-02T10:41:03.021Z,97187.94
2018-04-02T10:42:07.084Z,97183.13
2018-04-02T10:43:11.287Z,97182.91
2018-04-02T10:44:15.329Z,97184.67
2018-04-02T10:45:19.226Z,97177.83
2018-04-02T10:46:23.421Z,97177.23
2018-04-02T10:47:27.759Z,97166.39
2018-04-02T10:48:31.826Z,97182.33
2018-04-02T10:49:36.273Z,97178.80
2018-04-02T10:50:40.295Z,97171.13
2018-04-02T10:51:44.412Z,97154.78
2018-04-02T10:52:48.509Z,97152.61
2018-04-02T10:53:52.454Z,97169.33
2018-04-02T10:54:56.500Z,97164.80
2018-04-02T10:56:00.762Z,97156.24
2018-04-02T10:57:04.702Z,97174.34
2018-04-02T10:58:08.660Z,97163.47
2018-04-02T10:59:12.715Z,97153.84
2018-04-02T11:00:16.748Z,97159.41
2018-04-02T11:01:20.926Z,97151.42
2018-04-02T11:02:25.361Z,97157.67
2018-04-02T11:03:29.367Z,97135.20
2018-04-02T11:04:33.249Z,97144.46
2018-04-02T11:05:37.216Z,97144.84
2018-04-02T11:06:41.164Z,97154.28
2018-04-02T11:07:45.124Z,97146.55
2018-04-02T11:08:49.351Z,97144.48
2018-04-02T11:09:53.312Z,97139.17
2018-04-02T11:10:57.231Z,97131.84
2018-04-02T11:12:01.364Z,97139.62
2018-04-02T11:13:05.293Z,97133.74
2018-04-02T11:14:09.239Z,97135.11
2018-04-02T11:15:13.613Z,97140.73
2018-04-02T11:16:17.546Z,97126.20
2018-04-02T11:17:21.462Z,97112.37
2018-04-02T11:18:25.498Z,97110.70
2018-04-02T11:19:29.515Z,97116.48
2018-04-02T11:20:33.578Z,97139.61
2018-04-02T11:21:37.973Z,97113.13
2018-04-02T11:22:41.928Z,97115.86
2018-04-02T11:23:46.018Z,97118.33
2018-04-02T11:24:50.017Z,97112.58
2018-04-02T11:25:53.915Z,97117.00
2018-04-02T11:26:58.365Z,97094.23
2018-04-02T11:28:02.673Z,97115.42
2018-04-02T11:29:06.722Z,97084.82
2018-04-02T11:30:10.810Z,97092.55
2018-04-02T11:31:16.276Z,97096.34
2018-04-02T11:32:20.458Z,97090.77
2018-04-02T11:33:24.532Z,97086.91
2018-04-02T11:34:28.790Z,97097.70
2018-04-02T11:35:32.783Z,97090.39
2018-04-02T11:36:36.711Z,97090.45
2018-04-02T11:37:40.680Z,97101.96
2018-04-02T11:38:44.572Z,97092.59
2018-04-02T11:39:48.513Z,97073.86
2018-04-02T11:40:52.774Z,97082.81
2018-04-02T11:41:56.763Z,97089.63
2018-04-02T11:43:00.625Z,97080.18
2018-04-02T11:44:04.653Z,97081.57
2018-04-02T11:45:08.586Z,97070.73
2018-04-02T11:46:12.595Z,97069.62
2018-04-02T11:47:16.788Z,97074.43
2018-04-02T11:48:20.711Z,97068.03
2018-04-02T11:49:24.733Z,97076.77
2018-04-02T11:50:28.688Z,97072.20
2018-04-02T11:51:32.907Z,97054.88
2018-04-02T11:52:36.781Z,97056.82
2018-04-02T11:53:41.137Z,97061.69
2018-04-02T11:54:45.217Z,97067.20
2018-04-02T11:55:49.203Z,97063.95
2018-04-02T11:56:53.206Z,97055.88
2018-04-02T11:57:57.266Z,97070.23
2018-04-02T11:59:01.246Z,97077.73
2018-04-02T12:00:06.292Z,97073.47
2018-04-02T12:01:11.009Z,97042.13
2018-04-02T12:02:15.226Z,97072.22
2018-04-02T12:03:19.334Z,97040.39
2018-04-02T12:04:24.394Z,97064.05
2018-04-02T12:05:29.271Z,97061.31
2018-04-02T12:06:33.446Z,97055.62
2018-04-02T12:07:37.324Z,97052.64
2018-04-02T12:08:41.470Z,97051.84
2018-04-02T12:09:45.472Z,97062.05
2018-04-02T12:10:49.532Z,97057.41
2018-04-02T12:11:53.645Z,97039.13
2018-04-02T12:12:57.979Z,97059.64
2018-04-02T12:14:02.061Z,97047.80
2018-04-02T12:15:05.954Z,97041.66
2018-04-02T12:16:09.758Z,97023.75
2018-04-02T12:17:13.810Z,97044.88
2018-04-02T12:18:17.648Z,97033.95
2018-04-02T12:19:21.853Z,97037.27
2018-04-02T12:20:25.707Z,97041.23
2018-04-02T12:21:29.620Z,97033.63
2018-04-02T12:22:33.604Z,97020.25
2018-04-02T12:23:37.522Z,97031.91
2018-04-02T12:24:41.365Z,97025.56
2018-04-02T12:25:45.824Z,97019.66
2018-04-02T12:26:49.745Z,97033.95
2018-04-02T12:27:53.854Z,97025.95
2018-04-02T12:28:57.870Z,97019.13
2018-04-02T12:30:01.728Z,97030.19
2018-04-02T12:31:05.927Z,97004.70
2018-04-02T12:32:10.208Z,97015.91
2018-04-02T12:33:14.084Z,97028.77
2018-04-02T12:34:17.881Z,97030.02
2018-04-02T12:35:22.397Z,97032.84
2018-04-02T12:36:26.434Z,97005.61
2018-04-02T12:37:30.295Z,97033.73
2018-04-02T12:38:34.806Z,97021.42
2018-04-02T12:39:38.753Z,97016.45
2018-04-02T12:40:42.964Z,97022.06
2018-04-02T12:41:46.899Z,97012.84
2018-04-02T12:42:51.014Z,97018.33
2018-04-02T12:43:54.939Z,97016.62
2018-04-02T12:44:59.332Z,97012.52
2018-04-02T12:46:03.179Z,97023.75
2018-04-02T12:47:07.371Z,97010.72
2018-04-02T12:48:11.266Z,97001.16
2018-04-02T12:49:15.204Z,97000.25
2018-04-02T12:50:19.193Z,97007.95
2018-04-02T12:51:23.599Z,96995.14
2018-04-02T12:52:27.566Z,96992.53
2018-04-02T12:53:31.462Z,96999.39
2018-04-02T12:54:35.347Z,96984.94
2018-04-02T12:55:39.296Z,96986.11
2018-04-02T12:56:43.227Z,96992.97
2018-04-02T12:57:47.488Z,96991.48
2018-04-02T12:58:51.469Z,96987.89
2018-04-02T12:59:55.321Z,96984.45
2018-04-02T13:00:59.182Z,96991.77
2018-04-02T13:02:03.800Z,96957.77
2018-04-02T13:03:07.845Z,96987.86
2018-04-02T13:04:11.993Z,96984.55
2018-04-02T13:05:15.954Z,96984.95
2018-04-02T13:06:19.950Z,96990.15
2018-04-02T13:07:23.947Z,96962.73
2018-04-02T13:08:27.957Z,96979.45
2018-04-02T13:09:32.001Z,96985.39
2018-04-02T13:10:36.289Z,96972.21
2018-04-02T13:11:40.189Z,96978.69
2018-04-02T13:12:44.095Z,96984.95
2018-04-02T13:13:48.057Z,96981.73
2018-04-02T13:14:52.014Z,96988.98
2018-04-02T13:15:55.863Z,96985.34
2018-04-02T13:17:00.166Z,96971.22
2018-04-02T13:18:04.088Z,96986.80
2018-04-02T13:19:08.100Z,96983.75
2018-04-02T13:20:12.063Z,96975.61
2018-04-02T13:21:16.171Z,96961.27
2018-04-02T13:22:20.106Z,96950.58
2018-04-02T13:23:24.325Z,96981.36
2018-04-02T13:24:28.266Z,96951.61
2018-04-02T13:25:32.176Z,96964.41
2018-04-02T13:26:36.144Z,96962.81
2018-04-02T13:27:40.133Z,96960.37
2018-04-02T13:28:45.271Z,96958.70
2018-04-02T13:29:49.453Z,96967.33
2018-04-02T13:30:53.367Z,96961.96
2018-04-02T13:31:57.841Z,96964.16
2018-04-02T13:33:01.738Z,96961.41
2018-04-02T13:34:05.557Z,96957.73
2018-04-02T13:35:09.760Z,96958.33
2018-04-02T13:36:14.157Z,96968.63
2018-04-02T13:37:18.158Z,96956.09
2018-04-02T13:38:22.199Z,96970.34
2018-04-02T13:39:26.083Z,96955.50
2018-04-02T13:40:29.997Z,96970.98
2018-04-02T13:41:33.955Z,96941.63
2018-04-02T13:42:38.470Z,96965.88
2018-04-02T13:43:42.545Z,96954.30
2018-04-02T13:44:47.042Z,96948.28
2018-04-02T13:45:50.999Z,96943.18
2018-04-02T13:46:55.061Z,96945.76
2018-04-02T13:47:59.366Z,96947.39
2018-04-02T13:49:03.304Z,96943.19
2018-04-02T13:50:07.192Z,96938.76
2018-04-02T13:51:11.129Z,96932.52
2018-04-02T13:52:15.087Z,96935.41
2018-04-02T13:53:19.017Z,96931.51
2018-04-02T13:54:23.313Z,96936.44
2018-04-02T13:55:27.438Z,96935.33
2018-04-02T13:56:31.366Z,96935.11
2018-04-02T13:57:35.356Z,96930.61
2018-04-02T13:58:39.337Z,96931.98
2018-04-02T13:59:43.327Z,96943.39
2018-04-02T14:00:47.576Z,96931.91
2018-04-02T14:01:51.484Z,96920.31
2018-04-02T14:02:55.347Z,96922.33
2018-04-02T14:03:59.282Z,96916.44
2018-04-02T14:05:03.328Z,96891.64
2018-04-02T14:06:07.297Z,96911.54
2018-04-02T14:07:11.637Z,96900.48
2018-04-02T14:08:15.611Z,96902.75
2018-04-02T14:09:19.583Z,96911.80
2018-04-02T14:10:23.622Z,96922.53
2018-04-02T14:11:27.546Z,96917.13
2018-04-02T14:12:32.421Z,96919.87
2018-04-02T14:13:36.928Z,96910.39
2018-04-02T14:14:40.893Z,96892.62
2018-04-02T14:15:44.781Z,96890.66
2018-04-02T14:16:48.754Z,96892.49
2018-04-02T14:17:52.609Z,96891.52
2018-04-02T14:18:56.465Z,96883.02
2018-04-02T14:20:01.161Z,96890.80
2018-04-02T14:21:05.097Z,96887.92
2018-04-02T14:22:08.956Z,96883.94
2018-04-02T14:23:12.865Z,96899.98
2018-04-02T14:24:16.872Z,96883.47
2018-04-02T14:25:20.963Z,96882.31
2018-04-02T14:26:25.318Z,96881.14
2018-04-02T14:27:29.248Z,96882.33
2018-04-02T14:28:33.324Z,96874.52
2018-04-02T14:29:37.499Z,96880.84
2018-04-02T14:30:41.465Z,96876.30
2018-04-02T14:31:45.414Z,96871.83
2018-04-02T14:32:49.970Z,96867.23
2018-04-02T14:33:53.881Z,96872.47
2018-04-02T14:34:57.787Z,96863.05
2018-04-02T14:36:01.890Z,96859.39
2018-04-02T14:37:05.843Z,96865.58
2018-04-02T14:38:09.851Z,96861.07
2018-04-02T14:39:14.263Z,96866.30
2018-04-02T14:40:18.630Z,96849.80
2018-04-02T14:41:22.535Z,96867.98
2018-04-02T14:42:26.544Z,96874.02
2018-04-02T14:43:30.476Z,96847.44
2018-04-02T14:44:34.445Z,96845.72
2018-04-02T14:45:38.862Z,96866.34
2018-04-02T14:46:43.680Z,96851.05
2018-04-02T14:47:47.637Z,96859.01
2018-04-02T14:48:51.540Z,96855.63
2018-04-02T14:49:55.536Z,96851.51
2018-04-02T14:50:59.389Z,96858.24
2018-04-02T14:52:04.652Z,96852.84
2018-04-02T14:53:09.160Z,96853.42
2018-04-02T14:54:13.617Z,96855.58
2018-04-02T14:55:17.637Z,96837.91
2018-04-02T14:56:21.570Z,96847.06
2018-04-02T14:57:25.560Z,96845.23
2018-04-02T14:58:31.344Z,96822.00
2018-04-02T14:59:35.405Z,96834.50
2018-04-02T15:00:39.472Z,96820.55
2018-04-02T15:01:43.527Z,96836.75
2018-04-02T15:02:47.569Z,96843.14
2018-04-02T15:03:51.677Z,96841.48
2018-04-02T15:04:56.376Z,96832.13
2018-04-02T15:06:00.862Z,96835.98
2018-04-02T15:07:05.106Z,96841.98
2018-04-02T15:08:09.666Z,96833.44
2018-04-02T15:09:13.960Z,96824.89
2018-04-02T15:10:18.219Z,96827.11
2018-04-02T15:11:22.804Z,96829.65
2018-04-02T15:12:27.326Z,96828.23
2018-04-02T15:13:31.553Z,96832.38
2018-04-02T15:14:35.915Z,96834.19
2018-04-02T15:15:39.890Z,96829.31
2018-04-02T15:16:44.003Z,96818.81
2018-04-02T15:17:48.562Z,96817.01
2018-04-02T15:18:52.926Z,96814.98
2018-04-02T15:19:57.168Z,96811.88
2018-04-02T15:21:01.251Z,96810.42
2018-04-02T15:22:05.690Z,96808.41
2018-04-02T15:23:09.646Z,96808.31
2018-04-02T15:24:14.259Z,96800.17
2018-04-02T15:25:18.241Z,96807.84
2018-04-02T15:26:22.376Z,96802.38
2018-04-02T15:27:26.263Z,96800.39
2018-04-02T15:28:30.078Z,96793.61
2018-04-02T15:29:34.493Z,96794.20
2018-04-02T15:30:39.349Z,96798.58
2018-04-02T15:31:43.391Z,96805.86
2018-04-02T15:32:47.369Z,96797.00
2018-04-02T15:33:51.311Z,96792.48
2018-04-02T15:34:55.680Z,96789.12
2018-04-02T15:35:59.629Z,96780.72
2018-04-02T15:37:04.330Z,96799.50
2018-04-02T15:38:08.501Z,96780.64
2018-04-02T15:39:12.666Z,96784.74
2018-04-02T15:40:17.003Z,96784.59
2018-04-02T15:41:20.907Z,96778.22
2018-04-02T15:42:24.844Z,96776.63
2018-04-02T15:43:28.928Z,96780.95
2018-04-02T15:44:32.874Z,96776.84
2018-04-02T15:45:36.770Z,96777.69
2018-04-02T15:46:40.597Z,96779.59
2018-04-02T15:47:44.552Z,96778.72
2018-04-02T15:48:48.338Z,96770.41
2018-04-02T15:49:52.764Z,96768.17
2018-04-02T15:50:56.634Z,96773.19
2018-04-02T15:52:00.581Z,96768.27
2018-04-02T15:53:04.420Z,96772.09
2018-04-02T15:54:08.401Z,96764.40
2018-04-02T15:55:12.414Z,96761.87
2018-04-02T15:56:16.955Z,96761.74
2018-04-02T15:57:21.360Z,96759.73
2018-04-02T15:58:25.702Z,96748.19
2018-04-02T15:59:29.494Z,96740.56
2018-04-02T16:00:33.421Z,96753.08
2018-04-02T16:01:37.801Z,96746.86
2018-04-02T16:02:42.157Z,96726.94
2018-04-02T16:03:46.181Z,96742.58
2018-04-02T16:04:50.090Z,96702.44
2018-04-02T16:05:54.158Z,96728.36
2018-04-02T16:06:58.055Z,96699.75
2018-04-02T16:08:02.205Z,96736.68
2018-04-02T16:09:06.317Z,96732.77
2018-04-02T16:10:10.169Z,96719.84
2018-04-02T16:11:14.247Z,96725.12
2018-04-02T16:12:18.199Z,96727.17
2018-04-02T16:13:22.675Z,96727.33
2018-04-02T16:14:26.894Z,96727.58
2018-04-02T16:15:31.218Z,96724.77
2018-04-02T16:16:35.344Z,96730.16
2018-04-02T16:17:39.332Z,96723.84
2018-04-02T16:18:43.340Z,96713.70
2018-04-02T16:19:47.683Z,96718.34
2018-04-02T16:20:51.626Z,96714.78
2018-04-02T16:21:55.503Z,96701.84
2018-04-02T16:22:59.384Z,96710.04
2018-04-02T16:24:03.479Z,96713.70
2018-04-02T16:25:07.344Z,96706.91
2018-04-02T16:26:12.066Z,96706.95
2018-04-02T16:27:16.449Z,96698.92
2018-04-02T16:28:20.707Z,96680.60
2018-04-02T16:29:25.054Z,96672.84
2018-04-02T16:30:29.007Z,96675.28
2018-04-02T16:31:33.583Z,96679.97
2018-04-02T16:32:38.578Z,96685.66
2018-04-02T16:33:43.094Z,96673.11
2018-04-02T16:34:47.539Z,96684.02
2018-04-02T16:35:51.814Z,96674.23
2018-04-02T16:36:55.751Z,96684.84
2018-04-02T16:37:59.699Z,96682.59
2018-04-02T16:39:04.278Z,96688.41
2018-04-02T16:40:08.241Z,96682.78
2018-04-02T16:41:12.241Z,96690.29
2018-04-02T16:42:16.172Z,96686.33
2018-04-02T16:43:20.241Z,96669.83
2018-04-02T16:44:24.109Z,96683.99
2018-04-02T16:45:28.769Z,96681.28
2018-04-02T16:46:32.806Z,96698.19
2018-04-02T16:47:36.715Z,96705.98
2018-04-02T16:48:40.522Z,96701.48
2018-04-02T16:49:44.336Z,96696.41
2018-04-02T16:50:48.296Z,96699.54
2018-04-02T16:51:52.545Z,96702.31
2018-04-02T16:52:56.608Z,96698.32
2018-04-02T16:54:01.123Z,96689.46
2018-04-02T16:55:05.015Z,96689.48
2018-04-02T16:56:08.751Z,96687.30
2018-04-02T16:57:12.778Z,96689.78
2018-04-02T16:58:16.767Z,96690.83
2018-04-02T16:59:20.736Z,96688.00
2018-04-02T17:00:24.739Z,96639.64
2018-04-02T17:01:28.664Z,96683.70
2018-04-02T17:02:32.709Z,96682.48
2018-04-02T17:03:36.762Z,96690.42
2018-04-02T17:04:40.940Z,96684.79
2018-04-02T17:05:45.086Z,96686.13
2018-04-02T17:06:49.061Z,96679.24
2018-04-02T17:07:53.040Z,96685.95
2018-04-02T17:08:57.615Z,96682.67
2018-04-02T17:10:02.230Z,96684.02
2018-04-02T17:11:06.118Z,96688.64
2018-04-02T17:12:10.172Z,96691.02
2018-04-02T17:13:14.210Z,96692.92
2018-04-02T17:14:18.076Z,96686.70
2018-04-02T17:15:22.266Z,96694.58
2018-04-02T17:16:26.327Z,96695.16
2018-04-02T17:17:30.168Z,96694.91
2018-04-02T17:18:34.469Z,96689.49
2018-04-02T17:19:38.425Z,96691.84
2018-04-02T17:20:42.348Z,96689.08
2018-04-02T17:21:46.511Z,96686.22
2018-04-02T17:22:50.395Z,96679.36
2018-04-02T17:23:54.294Z,96683.10
2018-04-02T17:24:58.195Z,96683.48
2018-04-02T17:26:02.237Z,96681.16
2018-04-02T17:27:06.213Z,96681.59
2018-04-02T17:28:10.603Z,96691.40
2018-04-02T17:29:14.560Z,96680.06
2018-04-02T17:30:18.422Z,96680.72
2018-04-02T17:31:23.104Z,96686.71
2018-04-02T17:32:27.109Z,96688.00
2018-04-02T17:33:31.019Z,96692.25
2018-04-02T17:34:35.108Z,96684.70
2018-04-02T17:35:39.034Z,96681.56
2018-04-02T17:36:43.146Z,96678.22
2018-04-02T17:37:47.104Z,96677.62
2018-04-02T17:38:50.984Z,96673.84
2018-04-02T17:39:54.856Z,96679.39
2018-04-02T17:40:59.079Z,96669.94
2018-04-02T17:42:02.940Z,96673.39
2018-04-02T17:43:06.939Z,96676.86
2018-04-02T17:44:11.150Z,96651.38
2018-04-02T17:45:15.048Z,96682.63
2018-04-02T17:46:18.902Z,96681.63
2018-04-02T17:47:23.095Z,96678.03
2018-04-02T17:48:27.101Z,96682.97
2018-04-02T17:49:31.017Z,96683.03
2018-04-02T17:50:34.912Z,96675.39
2018-04-02T17:51:38.834Z,96669.94
2018-04-02T17:52:42.743Z,96670.91
2018-04-02T17:53:46.873Z,96651.55
2018-04-02T17:54:50.682Z,96677.47
2018-04-02T17:55:54.507Z,96675.39
2018-04-02T17:56:58.398Z,96670.83
2018-04-02T17:58:02.412Z,96677.83
2018-04-02T17:59:06.302Z,96677.09
2018-04-02T18:00:10.968Z,96640.35
2018-04-02T18:01:14.729Z,96681.68
2018-04-02T18:02:18.561Z,96684.45
2018-04-02T18:03:22.386Z,96682.72
2018-04-02T18:04:26.335Z,96686.69
2018-04-02T18:05:30.292Z,96680.80
2018-04-02T18:06:34.879Z,96679.78
2018-04-02T18:07:38.836Z,96674.41
2018-04-02T18:08:42.857Z,96676.25
2018-04-02T18:09:46.817Z,96675.25
2018-04-02T18:10:50.788Z,96669.73
2018-04-02T18:11:54.780Z,96669.08
2018-04-02T18:12:58.953Z,96675.44
2018-04-02T18:14:03.059Z,96678.19
2018-04-02T18:15:06.985Z,96675.09
2018-04-02T18:16:10.852Z,96683.80
2018-04-02T18:17:14.764Z,96672.75
2018-04-02T18:18:18.681Z,96688.14
2018-04-02T18:19:22.856Z,96683.02
2018-04-02T18:20:26.789Z,96674.48
2018-04-02T18:21:30.754Z,96672.82
2018-04-02T18:22:34.679Z,96639.94
2018-04-02T18:23:38.586Z,96674.95
2018-04-02T18:24:42.534Z,96661.39
2018-04-02T18:25:46.819Z,96668.72
2018-04-02T18:26:50.740Z,96676.06
2018-04-02T18:27:54.677Z,96674.05
2018-04-02T18:28:58.584Z,96664.05
2018-04-02T18:30:02.483Z,96666.12
2018-04-02T18:31:06.575Z,96665.64
2018-04-02T18:32:10.995Z,96660.95
2018-04-02T18:33:14.893Z,96659.09
2018-04-02T18:34:18.883Z,96661.24
2018-04-02T18:35:22.831Z,96663.30
2018-04-02T18:36:26.703Z,96661.73
2018-04-02T18:37:30.591Z,96657.91
2018-04-02T18:38:34.870Z,96652.90
2018-04-02T18:39:38.803Z,96644.12
2018-04-02T18:40:42.805Z,96657.48
2018-04-02T18:41:46.730Z,96653.25
2018-04-02T18:42:50.642Z,96652.59
2018-04-02T18:43:54.496Z,96658.91
2018-04-02T18:44:58.785Z,96654.64
2018-04-02T18:46:02.767Z,96655.93
2018-04-02T18:47:06.684Z,96658.30
2018-04-02T18:48:10.585Z,96659.14
2018-04-02T18:49:14.487Z,96652.60
2018-04-02T18:50:18.439Z,96649.32
2018-04-02T18:51:22.573Z,96656.77
2018-04-02T18:52:26.418Z,96653.45
2018-04-02T18:53:30.445Z,96651.68
2018-04-02T18:54:34.305Z,96658.04
2018-04-02T18:55:38.607Z,96609.23
2018-04-02T18:56:42.540Z,96650.89
2018-04-02T18:57:46.791Z,96659.48
2018-04-02T18:58:51.478Z,96649.03
2018-04-02T18:59:55.347Z,96639.19
2018-04-02T19:00:59.103Z,96646.13
2018-04-02T19:02:02.912Z,96647.47
2018-04-02T19:03:06.813Z,96640.95
2018-04-02T19:04:11.039Z,96645.64
2018-04-02T19:05:14.992Z,96642.85
2018-04-02T19:06:18.824Z,96646.55
2018-04-02T19:07:22.724Z,96648.31
2018-04-02T19:08:26.600Z,96647.93
2018-04-02T19:09:30.496Z,96642.50
2018-04-02T19:10:34.710Z,96642.81
2018-04-02T19:11:38.611Z,96637.96
2018-04-02T19:12:42.510Z,96644.74
2018-04-02T19:13:46.465Z,96651.39
2018-04-02T19:14:51.271Z,96655.30
2018-04-02T19:15:55.312Z,96664.62
2018-04-02T19:16:59.532Z,96648.16
2018-04-02T19:18:03.688Z,96659.86
2018-04-02T19:19:07.933Z,96648.02
2018-04-02T19:20:11.990Z,96653.41
2018-04-02T19:21:15.845Z,96657.34
2018-04-02T19:22:19.761Z,96654.87
2018-04-02T19:23:23.927Z,96646.70
2018-04-02T19:24:27.799Z,96649.70
2018-04-02T19:25:31.673Z,96651.94
2018-04-02T19:26:35.556Z,96654.02
2018-04-02T19:27:39.444Z,96654.78
2018-04-02T19:28:43.445Z,96650.69
2018-04-02T19:29:47.554Z,96659.91
2018-04-02T19:30:51.466Z,96658.16
2018-04-02T19:31:55.263Z,96648.84
2018-04-02T19:32:59.118Z,96667.07
2018-04-02T19:34:03.033Z,96679.34
2018-04-02T19:35:07.012Z,96682.28
2018-04-02T19:36:11.154Z,96685.09
2018-04-02T19:37:15.174Z,96682.53
2018-04-02T19:38:19.091Z,96680.48
2018-04-02T19:39:23.065Z,96677.28
2018-04-02T19:40:27.081Z,96678.19
2018-04-02T19:41:30.981Z,96677.28
2018-04-02T19:42:35.243Z,96675.40
2018-04-02T19:43:39.095Z,96679.59
2018-04-02T19:44:43.024Z,96674.64
2018-04-02T19:45:46.877Z,96665.13
2018-04-02T19:46:50.782Z,96664.28
2018-04-02T19:47:54.660Z,96661.01
2018-04-02T19:48:58.917Z,96650.50
2018-04-02T19:50:02.803Z,96656.48
2018-04-02T19:51:06.709Z,96659.45
2018-04-02T19:52:10.572Z,96654.13
2018-04-02T19:53:14.463Z,96664.00
2018-04-02T19:54:18.290Z,96655.91
2018-04-02T19:55:22.422Z,96652.02
2018-04-02T19:56:26.313Z,96654.25
2018-04-02T19:57:30.161Z,96655.16
2018-04-02T19:58:34.030Z,96653.83
2018-04-02T19:59:37.918Z,96651.12
2018-04-02T20:00:42.356Z,96643.37
2018-04-02T20:01:46.465Z,96647.27
2018-04-02T20:02:50.409Z,96644.04
2018-04-02T20:03:54.259Z,96632.58
2018-04-02T20:04:58.181Z,96644.94
2018-04-02T20:06:02.141Z,96645.71
2018-04-02T20:07:06.010Z,96641.28
2018-04-02T20:08:10.367Z,96641.09
2018-04-02T20:09:14.178Z,96641.70
2018-04-02T20:10:18.148Z,96642.61
2018-04-02T20:11:22.157Z,96635.95
2018-04-02T20:12:26.004Z,96638.63
2018-04-02T20:13:30.133Z,96632.06
2018-04-02T20:14:34.653Z,96633.24
2018-04-02T20:15:38.585Z,96635.50
2018-04-02T20:16:42.515Z,96635.05
2018-04-02T20:17:46.413Z,96623.75
2018-04-02T20:18:50.396Z,96613.95
2018-04-02T20:19:54.316Z,96633.88
2018-04-02T20:20:58.721Z,96625.41
2018-04-02T20:22:02.686Z,96628.50
2018-04-02T20:23:06.507Z,96626.36
2018-04-02T20:24:10.490Z,96627.64
2018-04-02T20:25:14.957Z,96630.83
2018-04-02T20:26:18.918Z,96625.56
2018-04-02T20:27:22.850Z,96630.06
2018-04-02T20:28:26.963Z,96623.03
2018-04-02T20:29:30.890Z,96622.90
2018-04-02T20:30:34.763Z,96627.88
2018-04-02T20:31:39.583Z,96626.89
2018-04-02T20:32:43.889Z,96596.27
2018-04-02T20:33:47.902Z,96625.98
2018-04-02T20:34:51.933Z,96624.36
2018-04-02T20:35:55.901Z,96631.69
2018-04-02T20:37:00.667Z,96631.20
2018-04-02T20:38:04.887Z,96626.13
2018-04-02T20:39:09.411Z,96624.73
2018-04-02T20:40:13.274Z,96629.45
2018-04-02T20:41:17.170Z,96631.02
2018-04-02T20:42:21.228Z,96626.30
2018-04-02T20:43:26.457Z,96633.06
2018-04-02T20:44:30.672Z,96630.48
2018-04-02T20:45:34.628Z,96628.17
2018-04-02T20:46:39.081Z,96625.16
2018-04-02T20:47:43.291Z,96633.81
2018-04-02T20:48:47.220Z,96625.50
2018-04-02T20:49:51.161Z,96611.05
2018-04-02T20:50:55.060Z,96619.70
2018-04-02T20:51:59.472Z,96627.40
2018-04-02T20:53:04.437Z,96622.80
2018-04-02T20:54:08.380Z,96614.20
2018-04-02T20:55:12.268Z,96616.43
2018-04-02T20:56:16.103Z,96604.40
2018-04-02T20:57:20.073Z,96616.25
2018-04-02T20:58:24.314Z,96619.34
2018-04-02T20:59:28.293Z,96622.18
2018-04-02T21:00:32.218Z,96613.01
2018-04-02T21:01:36.225Z,96612.62
2018-04-02T21:02:40.065Z,96610.49
2018-04-02T21:03:44.055Z,96613.53
2018-04-02T21:04:48.228Z,96613.23
2018-04-02T21:05:52.276Z,96609.58
2018-04-02T21:06:56.066Z,96603.38
2018-04-02T21:08:00.060Z,96602.27
2018-04-02T21:09:04.139Z,96603.84
2018-04-02T21:10:08.074Z,96602.04
2018-04-02T21:11:12.348Z,96590.44
2018-04-02T21:12:20.569Z,96591.16
2018-04-02T21:13:24.576Z,96589.34
2018-04-02T21:14:28.541Z,96586.31
2018-04-02T21:15:32.406Z,96581.97
2018-04-02T21:16:36.351Z,96586.39
2018-04-02T21:17:40.600Z,96574.23
2018-04-02T21:18:45.277Z,96544.30
2018-04-02T21:19:49.528Z,96577.74
2018-04-02T21:20:53.358Z,96585.35
2018-04-02T21:21:57.797Z,96587.16
2018-04-02T21:23:01.981Z,96589.39
2018-04-02T21:24:06.813Z,96581.46
2018-04-02T21:25:10.695Z,96584.40
2018-04-02T21:26:14.606Z,96588.78
2018-04-02T21:27:18.893Z,96585.11
2018-04-02T21:28:22.966Z,96589.11
2018-04-02T21:29:26.954Z,96585.83
2018-04-02T21:30:31.166Z,96582.93
2018-04-02T21:31:35.061Z,96585.30
2018-04-02T21:32:39.040Z,96584.73
2018-04-02T21:33:42.927Z,96585.16
2018-04-02T21:34:46.989Z,96590.68
2018-04-02T21:35:50.952Z,96585.87
2018-04-02T21:36:55.265Z,96592.77
2018-04-02T21:37:59.183Z,96592.48
2018-04-02T21:39:03.143Z,96593.53
2018-04-02T21:40:07.075Z,96587.83
2018-04-02T21:41:11.148Z,96592.30
2018-04-02T21:42:15.065Z,96583.97
2018-04-02T21:43:19.561Z,96585.78
2018-04-02T21:44:23.572Z,96596.24
2018-04-02T21:45:27.679Z,96588.73
2018-04-02T21:46:31.636Z,96584.50
2018-04-02T21:47:35.508Z,96589.77
2018-04-02T21:48:39.467Z,96573.00
2018-04-02T21:49:44.137Z,96543.86
2018-04-02T21:50:48.719Z,96577.61
2018-04-02T21:51:52.794Z,96586.92
2018-04-02T21:52:56.721Z,96590.38
2018-04-02T21:54:00.779Z,96580.98
2018-04-02T21:55:04.780Z,96584.64
2018-04-02T21:56:09.005Z,96585.16
2018-04-02T21:57:12.943Z,96575.55
2018-04-02T21:58:16.933Z,96579.66
2018-04-02T21:59:20.849Z,96580.93
2018-04-02T22:00:24.806Z,96578.70
2018-04-02T22:01:28.744Z,96577.07
2018-04-02T22:02:33.173Z,96579.59
2018-04-02T22:03:37.240Z,96578.88
2018-04-02T22:04:42.142Z,96584.92
2018-04-02T22:05:46.051Z,96578.45
2018-04-02T22:06:49.917Z,96581.12
2018-04-02T22:07:53.826Z,96580.08
2018-04-02T22:08:58.197Z,96576.27
2018-04-02T22:10:02.244Z,96579.36
2018-04-02T22:11:06.126Z,96576.75
2018-04-02T22:12:10.100Z,96568.66
2018-04-02T22:13:14.325Z,96570.89
2018-04-02T22:14:18.251Z,96573.55
2018-04-02T22:15:22.408Z,96571.80
2018-04-02T22:16:26.253Z,96570.70
2018-04-02T22:17:30.146Z,96569.98
2018-04-02T22:18:34.033Z,96569.42
2018-04-02T22:19:37.869Z,96571.19
2018-04-02T22:20:41.843Z,96565.91
2018-04-02T22:21:46.184Z,96565.81
2018-04-02T22:22:50.070Z,96565.57
2018-04-02T22:23:54.464Z,96567.48
2018-04-02T22:24:59.689Z,96561.02
2018-04-02T22:26:03.408Z,96558.91
2018-04-02T22:27:08.135Z,96509.02
2018-04-02T22:28:15.756Z,96562.77
2018-04-02T22:29:19.499Z,96558.16
2018-04-02T22:30:23.827Z,96562.10
2018-04-02T22:31:27.639Z,96544.33
2018-04-02T22:32:31.635Z,96560.48
2018-04-02T22:33:35.625Z,96560.95
2018-04-02T22:34:39.888Z,96561.09
2018-04-02T22:35:43.903Z,96551.16
2018-04-02T22:36:47.980Z,96559.49
2018-04-02T22:37:53.694Z,96563.48
2018-04-02T22:38:57.655Z,96566.90
